sensor_id;sensor_type;location;lat;lon;timestamp;P1;durP1;ratioP1;P2;durP2;ratioP2
19969;SDS011;10146;47.754;9.566;2023-04-25T00:01:39;2.67;;;2.47;;
19969;SDS011;10146;47.754;9.566;2023-04-25T00:04:05;6.93;;;2.75;;
19969;SDS011;10146;47.754;9.566;2023-04-25T00:06:32;6.13;;;2.70;;
19969;SDS011;10146;47.754;9.566;2023-04-25T00:09:01;5.78;;;3.20;;
19969;SDS011;10146;47.754;9.566;2023-04-25T00:11:32;6.22;;;3.28;;
19969;SDS011;10146;47.754;9.566;2023-04-25T00:13:58;5.30;;;3.20;;
19969;SDS011;10146;47.754;9.566;2023-04-25T00:16:26;5.95;;;3.00;;
19969;SDS011;10146;47.754;9.566;2023-04-25T00:18:53;5.10;;;2.78;;
19969;SDS011;10146;47.754;9.566;2023-04-25T00:21:19;4.50;;;3.00;;
19969;SDS011;10146;47.754;9.566;2023-04-25T00:23:46;3.92;;;3.15;;
19969;SDS011;10146;47.754;9.566;2023-04-25T00:26:12;4.05;;;3.22;;
19969;SDS011;10146;47.754;9.566;2023-04-25T00:28:38;4.38;;;3.00;;
19969;SDS011;10146;47.754;9.566;2023-04-25T00:31:04;5.57;;;3.13;;
19969;SDS011;10146;47.754;9.566;2023-04-25T00:33:30;4.70;;;3.05;;
19969;SDS011;10146;47.754;9.566;2023-04-25T00:35:55;3.65;;;3.17;;
19969;SDS011;10146;47.754;9.566;2023-04-25T00:38:21;4.65;;;3.00;;
19969;SDS011;10146;47.754;9.566;2023-04-25T00:40:47;5.63;;;3.05;;
19969;SDS011;10146;47.754;9.566;2023-04-25T00:43:12;5.53;;;3.15;;
19969;SDS011;10146;47.754;9.566;2023-04-25T00:45:38;6.30;;;3.30;;
19969;SDS011;10146;47.754;9.566;2023-04-25T00:48:05;4.90;;;3.83;;
19969;SDS011;10146;47.754;9.566;2023-04-25T00:50:32;5.10;;;3.40;;
19969;SDS011;10146;47.754;9.566;2023-04-25T00:52:58;4.43;;;3.40;;
19969;SDS011;10146;47.754;9.566;2023-04-25T00:55:25;6.50;;;3.70;;
19969;SDS011;10146;47.754;9.566;2023-04-25T00:57:51;5.72;;;3.67;;
19969;SDS011;10146;47.754;9.566;2023-04-25T01:00:17;5.35;;;3.15;;
19969;SDS011;10146;47.754;9.566;2023-04-25T01:02:43;4.93;;;3.40;;
19969;SDS011;10146;47.754;9.566;2023-04-25T01:05:10;4.68;;;3.33;;
19969;SDS011;10146;47.754;9.566;2023-04-25T01:07:37;8.90;;;3.80;;
19969;SDS011;10146;47.754;9.566;2023-04-25T01:10:03;5.30;;;3.40;;
19969;SDS011;10146;47.754;9.566;2023-04-25T01:12:29;6.97;;;3.53;;
19969;SDS011;10146;47.754;9.566;2023-04-25T01:14:55;8.10;;;3.40;;
19969;SDS011;10146;47.754;9.566;2023-04-25T01:17:21;6.60;;;3.30;;
19969;SDS011;10146;47.754;9.566;2023-04-25T01:19:47;6.45;;;3.47;;
19969;SDS011;10146;47.754;9.566;2023-04-25T01:22:14;5.72;;;3.28;;
19969;SDS011;10146;47.754;9.566;2023-04-25T01:24:40;3.88;;;3.00;;
19969;SDS011;10146;47.754;9.566;2023-04-25T01:27:06;5.03;;;3.05;;
19969;SDS011;10146;47.754;9.566;2023-04-25T01:29:32;6.35;;;3.38;;
19969;SDS011;10146;47.754;9.566;2023-04-25T01:31:59;5.47;;;2.92;;
19969;SDS011;10146;47.754;9.566;2023-04-25T01:34:26;5.10;;;3.17;;
19969;SDS011;10146;47.754;9.566;2023-04-25T01:36:51;7.07;;;3.42;;
19969;SDS011;10146;47.754;9.566;2023-04-25T01:39:18;5.45;;;3.00;;
19969;SDS011;10146;47.754;9.566;2023-04-25T01:41:45;6.45;;;3.63;;
19969;SDS011;10146;47.754;9.566;2023-04-25T01:44:12;6.43;;;3.72;;
19969;SDS011;10146;47.754;9.566;2023-04-25T01:46:38;5.32;;;2.85;;
19969;SDS011;10146;47.754;9.566;2023-04-25T01:49:03;4.28;;;3.15;;
19969;SDS011;10146;47.754;9.566;2023-04-25T01:51:29;5.03;;;3.20;;
19969;SDS011;10146;47.754;9.566;2023-04-25T01:53:56;4.55;;;2.90;;
19969;SDS011;10146;47.754;9.566;2023-04-25T01:56:23;3.65;;;2.63;;
19969;SDS011;10146;47.754;9.566;2023-04-25T01:58:48;5.07;;;3.22;;
19969;SDS011;10146;47.754;9.566;2023-04-25T02:01:14;5.03;;;2.88;;
19969;SDS011;10146;47.754;9.566;2023-04-25T02:03:40;5.65;;;2.80;;
19969;SDS011;10146;47.754;9.566;2023-04-25T02:06:05;6.70;;;3.08;;
19969;SDS011;10146;47.754;9.566;2023-04-25T02:08:31;4.22;;;2.78;;
19969;SDS011;10146;47.754;9.566;2023-04-25T02:10:57;4.55;;;3.30;;
19969;SDS011;10146;47.754;9.566;2023-04-25T02:13:23;3.03;;;2.38;;
19969;SDS011;10146;47.754;9.566;2023-04-25T02:15:48;4.82;;;2.60;;
19969;SDS011;10146;47.754;9.566;2023-04-25T02:18:14;3.53;;;2.97;;
19969;SDS011;10146;47.754;9.566;2023-04-25T02:20:41;5.95;;;2.92;;
19969;SDS011;10146;47.754;9.566;2023-04-25T02:23:07;4.35;;;2.92;;
19969;SDS011;10146;47.754;9.566;2023-04-25T02:25:33;6.10;;;2.83;;
19969;SDS011;10146;47.754;9.566;2023-04-25T02:27:58;3.78;;;3.00;;
19969;SDS011;10146;47.754;9.566;2023-04-25T02:30:24;5.50;;;3.10;;
19969;SDS011;10146;47.754;9.566;2023-04-25T02:32:49;5.00;;;3.15;;
19969;SDS011;10146;47.754;9.566;2023-04-25T02:35:15;4.30;;;3.00;;
19969;SDS011;10146;47.754;9.566;2023-04-25T02:37:41;3.35;;;2.97;;
19969;SDS011;10146;47.754;9.566;2023-04-25T02:40:07;3.95;;;2.78;;
19969;SDS011;10146;47.754;9.566;2023-04-25T02:42:33;3.90;;;2.85;;
19969;SDS011;10146;47.754;9.566;2023-04-25T02:44:59;4.47;;;2.90;;
19969;SDS011;10146;47.754;9.566;2023-04-25T02:47:25;5.88;;;3.92;;
19969;SDS011;10146;47.754;9.566;2023-04-25T02:49:51;4.70;;;3.35;;
19969;SDS011;10146;47.754;9.566;2023-04-25T02:52:17;6.65;;;3.38;;
19969;SDS011;10146;47.754;9.566;2023-04-25T02:54:43;3.92;;;3.40;;
19969;SDS011;10146;47.754;9.566;2023-04-25T02:57:08;4.10;;;3.55;;
19969;SDS011;10146;47.754;9.566;2023-04-25T02:59:34;4.75;;;3.70;;
19969;SDS011;10146;47.754;9.566;2023-04-25T03:02:00;3.85;;;3.03;;
19969;SDS011;10146;47.754;9.566;2023-04-25T03:04:26;7.70;;;3.38;;
19969;SDS011;10146;47.754;9.566;2023-04-25T03:06:51;7.68;;;3.33;;
19969;SDS011;10146;47.754;9.566;2023-04-25T03:09:18;5.80;;;3.65;;
19969;SDS011;10146;47.754;9.566;2023-04-25T03:11:44;5.70;;;3.65;;
19969;SDS011;10146;47.754;9.566;2023-04-25T03:14:10;4.93;;;3.55;;
19969;SDS011;10146;47.754;9.566;2023-04-25T03:16:36;3.63;;;3.30;;
19969;SDS011;10146;47.754;9.566;2023-04-25T03:19:02;6.28;;;3.47;;
19969;SDS011;10146;47.754;9.566;2023-04-25T03:21:28;4.88;;;3.83;;
19969;SDS011;10146;47.754;9.566;2023-04-25T03:23:56;6.53;;;3.33;;
19969;SDS011;10146;47.754;9.566;2023-04-25T03:26:22;5.05;;;3.20;;
19969;SDS011;10146;47.754;9.566;2023-04-25T03:28:48;6.65;;;3.70;;
19969;SDS011;10146;47.754;9.566;2023-04-25T03:31:14;3.88;;;3.13;;
19969;SDS011;10146;47.754;9.566;2023-04-25T03:33:39;5.25;;;3.72;;
19969;SDS011;10146;47.754;9.566;2023-04-25T03:36:05;4.50;;;3.40;;
19969;SDS011;10146;47.754;9.566;2023-04-25T03:38:31;7.13;;;3.78;;
19969;SDS011;10146;47.754;9.566;2023-04-25T03:40:57;6.28;;;3.65;;
19969;SDS011;10146;47.754;9.566;2023-04-25T03:43:22;3.55;;;3.25;;
19969;SDS011;10146;47.754;9.566;2023-04-25T03:45:48;4.50;;;3.95;;
19969;SDS011;10146;47.754;9.566;2023-04-25T03:48:13;3.97;;;3.20;;
19969;SDS011;10146;47.754;9.566;2023-04-25T03:50:39;5.20;;;3.60;;
19969;SDS011;10146;47.754;9.566;2023-04-25T03:53:05;5.15;;;3.95;;
19969;SDS011;10146;47.754;9.566;2023-04-25T03:55:30;7.25;;;3.92;;
19969;SDS011;10146;47.754;9.566;2023-04-25T03:57:57;5.03;;;4.10;;
19969;SDS011;10146;47.754;9.566;2023-04-25T04:00:23;6.07;;;4.03;;
19969;SDS011;10146;47.754;9.566;2023-04-25T04:02:49;7.60;;;4.60;;
19969;SDS011;10146;47.754;9.566;2023-04-25T04:05:15;4.47;;;3.53;;
19969;SDS011;10146;47.754;9.566;2023-04-25T04:07:40;4.70;;;3.58;;
19969;SDS011;10146;47.754;9.566;2023-04-25T04:10:07;4.47;;;3.90;;
19969;SDS011;10146;47.754;9.566;2023-04-25T04:12:36;5.35;;;4.28;;
19969;SDS011;10146;47.754;9.566;2023-04-25T04:15:03;6.75;;;4.15;;
19969;SDS011;10146;47.754;9.566;2023-04-25T04:17:30;6.15;;;4.00;;
19969;SDS011;10146;47.754;9.566;2023-04-25T04:19:56;6.05;;;4.10;;
19969;SDS011;10146;47.754;9.566;2023-04-25T04:22:22;5.53;;;3.72;;
19969;SDS011;10146;47.754;9.566;2023-04-25T04:24:48;4.85;;;3.65;;
19969;SDS011;10146;47.754;9.566;2023-04-25T04:27:15;3.80;;;3.40;;
19969;SDS011;10146;47.754;9.566;2023-04-25T04:29:42;4.80;;;3.53;;
19969;SDS011;10146;47.754;9.566;2023-04-25T04:32:08;4.93;;;4.15;;
19969;SDS011;10146;47.754;9.566;2023-04-25T04:34:34;5.05;;;3.53;;
19969;SDS011;10146;47.754;9.566;2023-04-25T04:36:59;4.32;;;3.90;;
19969;SDS011;10146;47.754;9.566;2023-04-25T04:39:25;4.75;;;3.53;;
19969;SDS011;10146;47.754;9.566;2023-04-25T04:41:51;5.57;;;3.80;;
19969;SDS011;10146;47.754;9.566;2023-04-25T04:44:17;4.10;;;3.70;;
19969;SDS011;10146;47.754;9.566;2023-04-25T04:46:43;5.88;;;3.58;;
19969;SDS011;10146;47.754;9.566;2023-04-25T04:49:09;5.53;;;4.50;;
19969;SDS011;10146;47.754;9.566;2023-04-25T04:51:36;5.20;;;3.70;;
19969;SDS011;10146;47.754;9.566;2023-04-25T04:54:02;7.32;;;4.10;;
19969;SDS011;10146;47.754;9.566;2023-04-25T04:56:28;6.70;;;3.70;;
19969;SDS011;10146;47.754;9.566;2023-04-25T04:58:56;6.63;;;3.83;;
19969;SDS011;10146;47.754;9.566;2023-04-25T05:01:22;5.57;;;3.35;;
19969;SDS011;10146;47.754;9.566;2023-04-25T05:03:47;4.10;;;3.50;;
19969;SDS011;10146;47.754;9.566;2023-04-25T05:06:13;4.75;;;3.47;;
19969;SDS011;10146;47.754;9.566;2023-04-25T05:08:39;8.45;;;3.75;;
19969;SDS011;10146;47.754;9.566;2023-04-25T05:11:05;8.30;;;4.03;;
19969;SDS011;10146;47.754;9.566;2023-04-25T05:13:30;5.93;;;3.47;;
19969;SDS011;10146;47.754;9.566;2023-04-25T05:15:56;5.88;;;3.85;;
19969;SDS011;10146;47.754;9.566;2023-04-25T05:18:21;5.80;;;3.50;;
19969;SDS011;10146;47.754;9.566;2023-04-25T05:20:47;7.07;;;3.42;;
19969;SDS011;10146;47.754;9.566;2023-04-25T05:23:12;3.78;;;3.30;;
19969;SDS011;10146;47.754;9.566;2023-04-25T05:25:38;6.20;;;3.50;;
19969;SDS011;10146;47.754;9.566;2023-04-25T05:28:04;3.55;;;3.25;;
19969;SDS011;10146;47.754;9.566;2023-04-25T05:30:30;5.13;;;3.08;;
19969;SDS011;10146;47.754;9.566;2023-04-25T05:32:56;4.63;;;3.40;;
19969;SDS011;10146;47.754;9.566;2023-04-25T05:35:21;4.88;;;3.28;;
19969;SDS011;10146;47.754;9.566;2023-04-25T05:37:47;5.47;;;3.85;;
19969;SDS011;10146;47.754;9.566;2023-04-25T05:40:13;5.55;;;3.42;;
19969;SDS011;10146;47.754;9.566;2023-04-25T05:42:38;5.18;;;3.78;;
19969;SDS011;10146;47.754;9.566;2023-04-25T05:45:04;5.20;;;3.58;;
19969;SDS011;10146;47.754;9.566;2023-04-25T05:47:30;4.47;;;3.42;;
19969;SDS011;10146;47.754;9.566;2023-04-25T05:49:56;4.95;;;3.55;;
19969;SDS011;10146;47.754;9.566;2023-04-25T05:52:21;5.10;;;3.40;;
19969;SDS011;10146;47.754;9.566;2023-04-25T05:54:47;5.03;;;3.33;;
19969;SDS011;10146;47.754;9.566;2023-04-25T05:57:22;5.53;;;3.40;;
19969;SDS011;10146;47.754;9.566;2023-04-25T05:59:49;3.90;;;3.50;;
19969;SDS011;10146;47.754;9.566;2023-04-25T06:02:15;4.88;;;3.70;;
19969;SDS011;10146;47.754;9.566;2023-04-25T06:04:41;4.70;;;4.15;;
19969;SDS011;10146;47.754;9.566;2023-04-25T06:07:06;7.25;;;3.92;;
19969;SDS011;10146;47.754;9.566;2023-04-25T06:09:32;4.10;;;3.08;;
19969;SDS011;10146;47.754;9.566;2023-04-25T06:11:58;4.65;;;3.55;;
19969;SDS011;10146;47.754;9.566;2023-04-25T06:14:23;5.57;;;2.97;;
19969;SDS011;10146;47.754;9.566;2023-04-25T06:16:49;3.63;;;2.95;;
19969;SDS011;10146;47.754;9.566;2023-04-25T06:19:14;5.95;;;3.47;;
19969;SDS011;10146;47.754;9.566;2023-04-25T06:21:41;4.80;;;3.50;;
19969;SDS011;10146;47.754;9.566;2023-04-25T06:24:08;4.35;;;3.60;;
19969;SDS011;10146;47.754;9.566;2023-04-25T06:26:33;4.93;;;3.28;;
19969;SDS011;10146;47.754;9.566;2023-04-25T06:28:59;7.22;;;3.60;;
19969;SDS011;10146;47.754;9.566;2023-04-25T06:31:25;5.50;;;3.65;;
19969;SDS011;10146;47.754;9.566;2023-04-25T06:33:50;12.63;;;4.30;;
19969;SDS011;10146;47.754;9.566;2023-04-25T06:36:19;5.88;;;3.95;;
19969;SDS011;10146;47.754;9.566;2023-04-25T06:38:49;4.05;;;3.47;;
19969;SDS011;10146;47.754;9.566;2023-04-25T06:41:15;6.60;;;3.75;;
19969;SDS011;10146;47.754;9.566;2023-04-25T06:43:41;4.30;;;3.47;;
19969;SDS011;10146;47.754;9.566;2023-04-25T06:46:07;5.20;;;3.30;;
19969;SDS011;10146;47.754;9.566;2023-04-25T06:48:32;3.80;;;3.35;;
19969;SDS011;10146;47.754;9.566;2023-04-25T06:50:58;6.43;;;3.42;;
19969;SDS011;10146;47.754;9.566;2023-04-25T06:53:23;5.13;;;3.67;;
19969;SDS011;10146;47.754;9.566;2023-04-25T06:55:49;6.28;;;3.42;;
19969;SDS011;10146;47.754;9.566;2023-04-25T06:58:15;3.90;;;2.95;;
19969;SDS011;10146;47.754;9.566;2023-04-25T07:00:40;8.00;;;3.50;;
19969;SDS011;10146;47.754;9.566;2023-04-25T07:03:08;4.38;;;2.95;;
19969;SDS011;10146;47.754;9.566;2023-04-25T07:05:33;6.78;;;3.38;;
19969;SDS011;10146;47.754;9.566;2023-04-25T07:07:59;5.70;;;2.95;;
19969;SDS011;10146;47.754;9.566;2023-04-25T07:10:25;6.80;;;3.13;;
19969;SDS011;10146;47.754;9.566;2023-04-25T07:12:50;5.15;;;2.92;;
19969;SDS011;10146;47.754;9.566;2023-04-25T07:15:16;4.00;;;2.83;;
19969;SDS011;10146;47.754;9.566;2023-04-25T07:17:42;4.93;;;2.92;;
19969;SDS011;10146;47.754;9.566;2023-04-25T07:20:08;4.95;;;3.10;;
19969;SDS011;10146;47.754;9.566;2023-04-25T07:22:35;4.85;;;3.30;;
19969;SDS011;10146;47.754;9.566;2023-04-25T07:25:00;5.93;;;3.35;;
19969;SDS011;10146;47.754;9.566;2023-04-25T07:27:26;4.60;;;3.17;;
19969;SDS011;10146;47.754;9.566;2023-04-25T07:29:52;5.32;;;3.10;;
19969;SDS011;10146;47.754;9.566;2023-04-25T07:32:18;4.75;;;2.78;;
19969;SDS011;10146;47.754;9.566;2023-04-25T07:34:43;4.20;;;2.97;;
19969;SDS011;10146;47.754;9.566;2023-04-25T07:37:09;5.82;;;2.55;;
19969;SDS011;10146;47.754;9.566;2023-04-25T07:39:34;4.93;;;2.40;;
19969;SDS011;10146;47.754;9.566;2023-04-25T07:42:00;7.57;;;2.60;;
19969;SDS011;10146;47.754;9.566;2023-04-25T07:44:27;6.72;;;3.05;;
19969;SDS011;10146;47.754;9.566;2023-04-25T07:46:52;5.30;;;2.90;;
19969;SDS011;10146;47.754;9.566;2023-04-25T07:49:18;6.57;;;2.70;;
19969;SDS011;10146;47.754;9.566;2023-04-25T07:51:44;6.30;;;2.90;;
19969;SDS011;10146;47.754;9.566;2023-04-25T07:54:13;6.85;;;3.10;;
19969;SDS011;10146;47.754;9.566;2023-04-25T07:56:39;4.90;;;2.70;;
19969;SDS011;10146;47.754;9.566;2023-04-25T07:59:05;5.22;;;2.83;;
19969;SDS011;10146;47.754;9.566;2023-04-25T08:01:30;5.20;;;3.20;;
19969;SDS011;10146;47.754;9.566;2023-04-25T08:03:56;4.95;;;3.20;;
19969;SDS011;10146;47.754;9.566;2023-04-25T08:06:22;4.05;;;2.72;;
19969;SDS011;10146;47.754;9.566;2023-04-25T08:08:47;5.82;;;3.03;;
19969;SDS011;10146;47.754;9.566;2023-04-25T08:11:13;2.42;;;1.95;;
19969;SDS011;10146;47.754;9.566;2023-04-25T08:13:38;4.53;;;2.65;;
19969;SDS011;10146;47.754;9.566;2023-04-25T08:16:04;5.57;;;3.00;;
19969;SDS011;10146;47.754;9.566;2023-04-25T08:18:30;8.23;;;3.47;;
19969;SDS011;10146;47.754;9.566;2023-04-25T08:20:55;5.80;;;3.40;;
19969;SDS011;10146;47.754;9.566;2023-04-25T08:23:21;7.00;;;3.05;;
19969;SDS011;10146;47.754;9.566;2023-04-25T08:25:47;5.78;;;3.25;;
19969;SDS011;10146;47.754;9.566;2023-04-25T08:28:13;5.10;;;3.60;;
19969;SDS011;10146;47.754;9.566;2023-04-25T08:30:40;7.75;;;3.85;;
19969;SDS011;10146;47.754;9.566;2023-04-25T08:33:05;5.07;;;3.25;;
19969;SDS011;10146;47.754;9.566;2023-04-25T08:35:31;5.57;;;3.55;;
19969;SDS011;10146;47.754;9.566;2023-04-25T08:37:58;4.43;;;3.80;;
19969;SDS011;10146;47.754;9.566;2023-04-25T08:40:23;4.85;;;3.55;;
19969;SDS011;10146;47.754;9.566;2023-04-25T08:42:55;5.13;;;3.70;;
19969;SDS011;10146;47.754;9.566;2023-04-25T08:45:23;5.57;;;3.65;;
19969;SDS011;10146;47.754;9.566;2023-04-25T08:47:51;5.68;;;3.67;;
19969;SDS011;10146;47.754;9.566;2023-04-25T08:50:18;5.07;;;3.50;;
19969;SDS011;10146;47.754;9.566;2023-04-25T08:52:46;6.30;;;3.15;;
19969;SDS011;10146;47.754;9.566;2023-04-25T08:55:15;3.47;;;3.17;;
19969;SDS011;10146;47.754;9.566;2023-04-25T08:57:41;4.93;;;3.40;;
19969;SDS011;10146;47.754;9.566;2023-04-25T09:00:08;3.97;;;2.25;;
19969;SDS011;10146;47.754;9.566;2023-04-25T09:02:35;2.83;;;1.85;;
19969;SDS011;10146;47.754;9.566;2023-04-25T09:05:02;2.50;;;1.85;;
19969;SDS011;10146;47.754;9.566;2023-04-25T09:07:29;2.38;;;1.60;;
19969;SDS011;10146;47.754;9.566;2023-04-25T09:09:55;2.28;;;1.80;;
19969;SDS011;10146;47.754;9.566;2023-04-25T09:12:21;2.88;;;1.50;;
19969;SDS011;10146;47.754;9.566;2023-04-25T09:15:00;2.00;;;1.80;;
19969;SDS011;10146;47.754;9.566;2023-04-25T09:17:36;3.08;;;1.85;;
19969;SDS011;10146;47.754;9.566;2023-04-25T09:20:12;2.72;;;2.05;;
19969;SDS011;10146;47.754;9.566;2023-04-25T09:22:38;3.63;;;2.65;;
19969;SDS011;10146;47.754;9.566;2023-04-25T09:25:10;3.78;;;2.30;;
19969;SDS011;10146;47.754;9.566;2023-04-25T09:27:36;2.50;;;2.25;;
19969;SDS011;10146;47.754;9.566;2023-04-25T09:30:18;3.70;;;2.40;;
19969;SDS011;10146;47.754;9.566;2023-04-25T09:32:44;3.88;;;2.22;;
19969;SDS011;10146;47.754;9.566;2023-04-25T09:35:10;4.40;;;3.00;;
19969;SDS011;10146;47.754;9.566;2023-04-25T09:37:48;5.57;;;3.00;;
19969;SDS011;10146;47.754;9.566;2023-04-25T09:40:13;5.80;;;2.70;;
19969;SDS011;10146;47.754;9.566;2023-04-25T09:42:41;4.93;;;2.47;;
19969;SDS011;10146;47.754;9.566;2023-04-25T09:45:06;2.13;;;1.92;;
19969;SDS011;10146;47.754;9.566;2023-04-25T09:47:33;2.83;;;1.75;;
19969;SDS011;10146;47.754;9.566;2023-04-25T09:50:02;3.15;;;2.10;;
19969;SDS011;10146;47.754;9.566;2023-04-25T09:52:30;2.78;;;2.30;;
19969;SDS011;10146;47.754;9.566;2023-04-25T09:54:55;3.00;;;2.15;;
19969;SDS011;10146;47.754;9.566;2023-04-25T09:57:22;2.47;;;2.10;;
19969;SDS011;10146;47.754;9.566;2023-04-25T10:02:17;2.60;;;2.40;;
19969;SDS011;10146;47.754;9.566;2023-04-25T10:04:50;2.20;;;2.00;;
19969;SDS011;10146;47.754;9.566;2023-04-25T10:07:19;2.53;;;2.10;;
19969;SDS011;10146;47.754;9.566;2023-04-25T10:09:50;3.28;;;2.35;;
19969;SDS011;10146;47.754;9.566;2023-04-25T10:12:27;2.50;;;2.30;;
19969;SDS011;10146;47.754;9.566;2023-04-25T10:14:54;2.63;;;2.45;;
19969;SDS011;10146;47.754;9.566;2023-04-25T10:17:20;3.55;;;2.40;;
19969;SDS011;10146;47.754;9.566;2023-04-25T10:19:46;2.35;;;2.20;;
19969;SDS011;10146;47.754;9.566;2023-04-25T10:22:14;2.65;;;2.25;;
19969;SDS011;10146;47.754;9.566;2023-04-25T10:24:45;1.88;;;1.77;;
19969;SDS011;10146;47.754;9.566;2023-04-25T10:27:11;1.80;;;1.70;;
19969;SDS011;10146;47.754;9.566;2023-04-25T10:29:38;1.50;;;1.40;;
19969;SDS011;10146;47.754;9.566;2023-04-25T10:32:03;1.30;;;1.20;;
19969;SDS011;10146;47.754;9.566;2023-04-25T10:34:38;2.45;;;2.10;;
19969;SDS011;10146;47.754;9.566;2023-04-25T10:37:05;1.60;;;1.50;;
19969;SDS011;10146;47.754;9.566;2023-04-25T10:39:34;1.25;;;1.25;;
19969;SDS011;10146;47.754;9.566;2023-04-25T10:42:01;1.50;;;1.38;;
19969;SDS011;10146;47.754;9.566;2023-04-25T10:44:28;1.10;;;1.00;;
19969;SDS011;10146;47.754;9.566;2023-04-25T10:46:55;1.20;;;1.10;;
19969;SDS011;10146;47.754;9.566;2023-04-25T10:49:29;1.05;;;0.98;;
19969;SDS011;10146;47.754;9.566;2023-04-25T10:52:24;1.73;;;1.10;;
19969;SDS011;10146;47.754;9.566;2023-04-25T10:54:56;1.25;;;1.15;;
19969;SDS011;10146;47.754;9.566;2023-04-25T10:57:29;2.38;;;1.30;;
19969;SDS011;10146;47.754;9.566;2023-04-25T11:00:00;0.82;;;0.82;;
19969;SDS011;10146;47.754;9.566;2023-04-25T11:02:30;1.63;;;1.10;;
19969;SDS011;10146;47.754;9.566;2023-04-25T11:04:56;1.00;;;1.00;;
19969;SDS011;10146;47.754;9.566;2023-04-25T11:09:58;1.10;;;1.00;;
19969;SDS011;10146;47.754;9.566;2023-04-25T11:12:27;1.40;;;0.82;;
19969;SDS011;10146;47.754;9.566;2023-04-25T11:14:59;0.95;;;0.90;;
19969;SDS011;10146;47.754;9.566;2023-04-25T11:17:28;1.00;;;0.90;;
19969;SDS011;10146;47.754;9.566;2023-04-25T11:19:54;1.08;;;0.90;;
19969;SDS011;10146;47.754;9.566;2023-04-25T11:22:21;0.90;;;0.90;;
19969;SDS011;10146;47.754;9.566;2023-04-25T11:24:47;0.98;;;0.88;;
19969;SDS011;10146;47.754;9.566;2023-04-25T11:27:13;0.98;;;0.88;;
19969;SDS011;10146;47.754;9.566;2023-04-25T11:29:39;0.75;;;0.75;;
19969;SDS011;10146;47.754;9.566;2023-04-25T11:32:05;0.80;;;0.80;;
19969;SDS011;10146;47.754;9.566;2023-04-25T11:34:31;1.35;;;1.00;;
19969;SDS011;10146;47.754;9.566;2023-04-25T11:36:58;0.60;;;0.60;;
19969;SDS011;10146;47.754;9.566;2023-04-25T11:39:27;0.70;;;0.70;;
19969;SDS011;10146;47.754;9.566;2023-04-25T11:41:54;1.25;;;0.75;;
19969;SDS011;10146;47.754;9.566;2023-04-25T11:44:20;0.63;;;0.63;;
19969;SDS011;10146;47.754;9.566;2023-04-25T11:46:46;0.60;;;0.60;;
19969;SDS011;10146;47.754;9.566;2023-04-25T11:49:12;0.73;;;0.50;;
19969;SDS011;10146;47.754;9.566;2023-04-25T11:51:42;1.20;;;0.68;;
19969;SDS011;10146;47.754;9.566;2023-04-25T11:54:09;0.60;;;0.60;;
19969;SDS011;10146;47.754;9.566;2023-04-25T11:56:36;0.40;;;0.40;;
19969;SDS011;10146;47.754;9.566;2023-04-25T11:59:03;1.48;;;0.77;;
19969;SDS011;10146;47.754;9.566;2023-04-25T12:01:46;1.13;;;0.40;;
19969;SDS011;10146;47.754;9.566;2023-04-25T12:06:44;0.55;;;0.55;;
19969;SDS011;10146;47.754;9.566;2023-04-25T12:09:13;0.40;;;0.40;;
19969;SDS011;10146;47.754;9.566;2023-04-25T12:11:41;0.40;;;0.40;;
19969;SDS011;10146;47.754;9.566;2023-04-25T12:14:08;1.13;;;0.50;;
19969;SDS011;10146;47.754;9.566;2023-04-25T12:16:45;0.65;;;0.30;;
19969;SDS011;10146;47.754;9.566;2023-04-25T12:19:14;0.70;;;0.60;;
19969;SDS011;10146;47.754;9.566;2023-04-25T12:21:42;0.43;;;0.40;;
19969;SDS011;10146;47.754;9.566;2023-04-25T12:24:15;0.50;;;0.40;;
19969;SDS011;10146;47.754;9.566;2023-04-25T12:26:53;0.65;;;0.40;;
19969;SDS011;10146;47.754;9.566;2023-04-25T12:29:27;0.45;;;0.45;;
19969;SDS011;10146;47.754;9.566;2023-04-25T12:31:54;0.75;;;0.60;;
19969;SDS011;10146;47.754;9.566;2023-04-25T12:34:20;0.57;;;0.50;;
19969;SDS011;10146;47.754;9.566;2023-04-25T12:36:47;0.73;;;0.50;;
19969;SDS011;10146;47.754;9.566;2023-04-25T12:39:14;0.52;;;0.52;;
19969;SDS011;10146;47.754;9.566;2023-04-25T12:41:46;0.40;;;0.40;;
19969;SDS011;10146;47.754;9.566;2023-04-25T12:44:12;0.50;;;0.50;;
19969;SDS011;10146;47.754;9.566;2023-04-25T12:46:39;0.40;;;0.40;;
19969;SDS011;10146;47.754;9.566;2023-04-25T12:49:05;0.40;;;0.40;;
19969;SDS011;10146;47.754;9.566;2023-04-25T12:51:32;0.40;;;0.40;;
19969;SDS011;10146;47.754;9.566;2023-04-25T12:53:59;0.77;;;0.32;;
19969;SDS011;10146;47.754;9.566;2023-04-25T12:56:25;0.50;;;0.50;;
19969;SDS011;10146;47.754;9.566;2023-04-25T12:58:52;1.08;;;0.30;;
19969;SDS011;10146;47.754;9.566;2023-04-25T13:01:18;0.30;;;0.25;;
19969;SDS011;10146;47.754;9.566;2023-04-25T13:03:45;0.30;;;0.30;;
19969;SDS011;10146;47.754;9.566;2023-04-25T13:06:11;0.40;;;0.30;;
19969;SDS011;10146;47.754;9.566;2023-04-25T13:08:37;0.30;;;0.25;;
19969;SDS011;10146;47.754;9.566;2023-04-25T13:11:04;0.32;;;0.32;;
19969;SDS011;10146;47.754;9.566;2023-04-25T13:13:30;1.73;;;1.30;;
19969;SDS011;10146;47.754;9.566;2023-04-25T13:15:56;0.63;;;0.40;;
19969;SDS011;10146;47.754;9.566;2023-04-25T13:18:22;0.20;;;0.20;;
19969;SDS011;10146;47.754;9.566;2023-04-25T13:20:51;0.50;;;0.20;;
19969;SDS011;10146;47.754;9.566;2023-04-25T13:23:18;0.20;;;0.20;;
19969;SDS011;10146;47.754;9.566;2023-04-25T13:25:44;0.35;;;0.20;;
19969;SDS011;10146;47.754;9.566;2023-04-25T13:28:10;0.52;;;0.15;;
19969;SDS011;10146;47.754;9.566;2023-04-25T13:30:35;0.20;;;0.20;;
19969;SDS011;10146;47.754;9.566;2023-04-25T13:33:01;0.28;;;0.28;;
19969;SDS011;10146;47.754;9.566;2023-04-25T13:35:31;0.32;;;0.20;;
19969;SDS011;10146;47.754;9.566;2023-04-25T13:37:58;0.20;;;0.20;;
19969;SDS011;10146;47.754;9.566;2023-04-25T13:40:23;0.65;;;0.28;;
19969;SDS011;10146;47.754;9.566;2023-04-25T13:42:49;0.60;;;0.52;;
19969;SDS011;10146;47.754;9.566;2023-04-25T13:45:16;0.40;;;0.40;;
19969;SDS011;10146;47.754;9.566;2023-04-25T13:47:41;0.73;;;0.40;;
19969;SDS011;10146;47.754;9.566;2023-04-25T13:50:07;0.50;;;0.50;;
19969;SDS011;10146;47.754;9.566;2023-04-25T13:52:33;0.85;;;0.40;;
19969;SDS011;10146;47.754;9.566;2023-04-25T13:54:59;0.88;;;0.30;;
19969;SDS011;10146;47.754;9.566;2023-04-25T13:57:26;0.30;;;0.30;;
19969;SDS011;10146;47.754;9.566;2023-04-25T13:59:51;0.20;;;0.20;;
19969;SDS011;10146;47.754;9.566;2023-04-25T14:02:17;0.60;;;0.20;;
19969;SDS011;10146;47.754;9.566;2023-04-25T14:04:43;0.47;;;0.25;;
19969;SDS011;10146;47.754;9.566;2023-04-25T14:07:09;1.15;;;0.25;;
19969;SDS011;10146;47.754;9.566;2023-04-25T14:09:35;0.30;;;0.30;;
19969;SDS011;10146;47.754;9.566;2023-04-25T14:12:01;0.20;;;0.20;;
19969;SDS011;10146;47.754;9.566;2023-04-25T14:14:27;1.10;;;0.20;;
19969;SDS011;10146;47.754;9.566;2023-04-25T14:16:53;1.10;;;0.20;;
19969;SDS011;10146;47.754;9.566;2023-04-25T14:19:22;0.68;;;0.47;;
19969;SDS011;10146;47.754;9.566;2023-04-25T14:21:51;0.20;;;0.20;;
19969;SDS011;10146;47.754;9.566;2023-04-25T14:24:17;0.95;;;0.30;;
19969;SDS011;10146;47.754;9.566;2023-04-25T14:26:43;0.32;;;0.20;;
19969;SDS011;10146;47.754;9.566;2023-04-25T14:29:09;0.30;;;0.30;;
19969;SDS011;10146;47.754;9.566;2023-04-25T14:31:36;0.20;;;0.20;;
19969;SDS011;10146;47.754;9.566;2023-04-25T14:34:03;0.55;;;0.30;;
19969;SDS011;10146;47.754;9.566;2023-04-25T14:36:29;0.30;;;0.30;;
19969;SDS011;10146;47.754;9.566;2023-04-25T14:38:55;0.57;;;0.30;;
19969;SDS011;10146;47.754;9.566;2023-04-25T14:41:21;0.30;;;0.30;;
19969;SDS011;10146;47.754;9.566;2023-04-25T14:43:48;0.30;;;0.30;;
19969;SDS011;10146;47.754;9.566;2023-04-25T14:46:13;0.22;;;0.22;;
19969;SDS011;10146;47.754;9.566;2023-04-25T14:48:39;0.30;;;0.30;;
19969;SDS011;10146;47.754;9.566;2023-04-25T14:51:05;0.63;;;0.40;;
19969;SDS011;10146;47.754;9.566;2023-04-25T14:53:31;0.47;;;0.47;;